createdAt,value
2022-11-29T00:00:57.796Z,53.6
2022-11-29T00:02:14.207Z,53.1
2022-11-29T00:03:30.618Z,53
2022-11-29T00:04:46.174Z,53.6
2022-11-29T00:07:18.106Z,53.6
2022-11-29T00:08:34.530Z,64.9
2022-11-29T00:12:23.753Z,53.1
2022-11-29T00:13:40.130Z,53.3
2022-11-29T00:14:56.584Z,52
2022-11-29T00:16:12.975Z,53.6
2022-11-29T00:17:29.389Z,53.3
2022-11-29T00:18:45.809Z,53.1
2022-11-29T00:20:02.207Z,52.3
2022-11-29T00:22:35.041Z,53.6
2022-11-29T00:23:51.417Z,53.6
2022-11-29T00:25:07.005Z,53
2022-11-29T00:26:22.536Z,53.3
2022-11-29T00:27:38.956Z,53.4
2022-11-29T00:28:55.358Z,52.5
2022-11-29T00:30:11.785Z,52.5
2022-11-29T00:31:28.177Z,52.8
2022-11-29T00:32:44.593Z,52.5
2022-11-29T00:34:00.978Z,51.2
2022-11-29T00:35:17.389Z,52.5
2022-11-29T00:36:33.819Z,52.5
2022-11-29T00:37:50.244Z,53.6
2022-11-29T00:39:06.642Z,53.3
2022-11-29T00:40:23.050Z,53.8
2022-11-29T00:41:38.614Z,51.5
2022-11-29T00:42:55.019Z,53
2022-11-29T00:44:11.389Z,52.2
2022-11-29T00:46:43.330Z,52.5
2022-11-29T00:47:59.779Z,54.3
2022-11-29T00:49:16.187Z,54.1
2022-11-29T00:51:49.012Z,53.6
2022-11-29T00:53:05.412Z,54.3
2022-11-29T00:54:21.798Z,54.7
2022-11-29T00:56:54.651Z,53.4
2022-11-29T00:58:11.050Z,54.6
2022-11-29T00:59:27.464Z,53.4
2022-11-29T01:00:43.842Z,53.9
2022-11-29T01:03:16.692Z,53.4
2022-11-29T01:04:33.107Z,53
2022-11-29T01:05:49.483Z,53.9
2022-11-29T01:08:22.349Z,53.4
2022-11-29T01:09:38.748Z,54.1
2022-11-29T01:10:55.158Z,51.8
2022-11-29T01:12:10.708Z,53
2022-11-29T01:13:27.119Z,56.2
2022-11-29T01:14:43.524Z,51.2
2022-11-29T01:15:59.054Z,51.5
2022-11-29T01:17:15.476Z,53
2022-11-29T01:18:31.893Z,52.2
2022-11-29T01:19:48.283Z,52
2022-11-29T01:21:04.703Z,52.3
2022-11-29T01:22:21.121Z,53
2022-11-29T01:23:37.517Z,53.9
2022-11-29T01:24:53.936Z,52.8
2022-11-29T01:26:10.350Z,53
2022-11-29T01:27:25.898Z,52.6
2022-11-29T01:29:58.676Z,52
2022-11-29T01:31:15.131Z,53
2022-11-29T01:32:31.524Z,53.1
2022-11-29T01:33:47.934Z,60.7
2022-11-29T01:35:03.447Z,52.5
2022-11-29T01:37:36.287Z,52.2
2022-11-29T01:38:52.708Z,52.5
2022-11-29T01:40:09.108Z,52
2022-11-29T01:42:41.940Z,50.7
2022-11-29T01:43:58.355Z,52.5
2022-11-29T01:45:13.895Z,55.5
2022-11-29T01:46:30.306Z,53.8
2022-11-29T01:47:46.723Z,53.3
2022-11-29T01:49:03.136Z,53.8
2022-11-29T01:50:19.535Z,61.2
2022-11-29T01:51:35.948Z,54.4
2022-11-29T01:52:51.469Z,54.3
2022-11-29T01:54:07.894Z,53.6
2022-11-29T01:55:24.304Z,53
2022-11-29T01:56:40.706Z,53.3
2022-11-29T01:57:57.120Z,55.4
2022-11-29T01:59:13.536Z,55.4
2022-11-29T02:00:29.918Z,55.1
2022-11-29T02:01:45.497Z,53.8
2022-11-29T02:03:01.026Z,53
2022-11-29T02:04:17.435Z,53
2022-11-29T02:05:33.836Z,52.8
2022-11-29T02:08:06.662Z,57.3
2022-11-29T02:09:23.066Z,53.3
2022-11-29T02:10:39.472Z,53.6
2022-11-29T02:13:12.307Z,51.5
2022-11-29T02:14:28.710Z,53.6
2022-11-29T02:15:45.091Z,61
2022-11-29T02:17:01.522Z,53.6
2022-11-29T02:18:17.081Z,53.1
2022-11-29T02:19:33.497Z,53.6
2022-11-29T02:20:49.026Z,53.8
2022-11-29T02:22:05.441Z,51.5
2022-11-29T02:23:21.852Z,52.8
2022-11-29T02:24:38.257Z,52
2022-11-29T02:25:54.660Z,52.3
2022-11-29T02:27:11.067Z,50.9
2022-11-29T02:28:27.487Z,52.6
2022-11-29T02:31:00.268Z,52.5
2022-11-29T02:32:16.716Z,53.4
2022-11-29T02:33:33.116Z,54.4
2022-11-29T02:34:49.541Z,51.7
2022-11-29T02:36:05.944Z,51.5
2022-11-29T02:37:21.486Z,52
2022-11-29T02:38:37.879Z,53.3
2022-11-29T02:39:54.287Z,51.5
2022-11-29T02:41:10.670Z,51.4
2022-11-29T02:43:43.531Z,52.6
2022-11-29T02:44:59.944Z,52
2022-11-29T02:46:16.339Z,52
2022-11-29T02:47:32.763Z,54.7
2022-11-29T02:48:49.171Z,53.3
2022-11-29T02:50:05.572Z,51.2
2022-11-29T02:51:21.989Z,53.4
2022-11-29T02:52:38.399Z,52.2
2022-11-29T02:53:54.815Z,53.3
2022-11-29T02:55:11.214Z,51.8
2022-11-29T02:56:26.750Z,54.9
2022-11-29T02:58:58.700Z,51.2
2022-11-29T03:00:14.230Z,52.5
2022-11-29T03:01:30.658Z,53.8
2022-11-29T03:02:47.068Z,53.4
2022-11-29T03:04:03.481Z,52
2022-11-29T03:06:36.264Z,52.5
2022-11-29T03:07:51.854Z,52.3
2022-11-29T03:09:07.386Z,53
2022-11-29T03:10:23.779Z,59.2
2022-11-29T03:11:40.206Z,63.6
2022-11-29T03:12:56.606Z,54.9
2022-11-29T03:14:13.007Z,52.6
2022-11-29T03:15:29.425Z,54.1
2022-11-29T03:16:45.833Z,54.1
2022-11-29T03:18:02.247Z,54.4
2022-11-29T03:19:18.617Z,52
2022-11-29T03:20:35.063Z,52.8
2022-11-29T03:21:50.625Z,54.1
2022-11-29T03:24:23.437Z,53.8
2022-11-29T03:26:55.349Z,56.7
2022-11-29T03:28:11.783Z,54.3
2022-11-29T03:29:28.192Z,55.1
2022-11-29T03:30:44.609Z,54.1
2022-11-29T03:32:00.982Z,57
2022-11-29T03:34:33.843Z,53
2022-11-29T03:35:50.244Z,55.9
2022-11-29T03:37:06.657Z,55.4
2022-11-29T03:38:23.076Z,55.1
2022-11-29T03:39:38.617Z,54.4
2022-11-29T03:42:11.416Z,57.6
2022-11-29T03:43:27.853Z,65.7
2022-11-29T03:44:43.376Z,56
2022-11-29T03:45:59.785Z,54.6
2022-11-29T03:47:16.178Z,55.5
2022-11-29T03:48:32.606Z,61.7
2022-11-29T03:49:49.025Z,55.5
2022-11-29T03:51:05.435Z,55.2
2022-11-29T03:52:21.832Z,56.5
2022-11-29T03:53:38.242Z,55.4
2022-11-29T03:54:53.812Z,55.5
2022-11-29T03:56:10.204Z,54.7
2022-11-29T03:57:25.753Z,56
2022-11-29T03:58:42.152Z,54.7
2022-11-29T03:59:58.568Z,54.7
2022-11-29T04:01:14.970Z,56.2
2022-11-29T04:02:31.379Z,55.1
2022-11-29T04:03:47.754Z,53.9
2022-11-29T04:05:04.196Z,55.1
2022-11-29T04:06:20.608Z,56
2022-11-29T04:07:37.016Z,54.4
2022-11-29T04:08:53.427Z,55.1
2022-11-29T04:10:09.840Z,55.9
2022-11-29T04:11:26.396Z,54.6
2022-11-29T04:12:41.922Z,55.4
2022-11-29T04:13:58.343Z,55.5
2022-11-29T04:15:14.752Z,55.1
2022-11-29T04:16:31.165Z,56.3
2022-11-29T04:17:47.565Z,55.5
2022-11-29T04:20:20.380Z,57.3
2022-11-29T04:21:36.794Z,56.3
2022-11-29T04:22:53.213Z,55.7
2022-11-29T04:25:26.021Z,54.6
2022-11-29T04:26:42.432Z,54.6
2022-11-29T04:27:57.992Z,56.3
2022-11-29T04:29:13.514Z,55.4
2022-11-29T04:30:29.927Z,54.9
2022-11-29T04:31:46.348Z,56.7
2022-11-29T04:33:02.737Z,56
2022-11-29T04:35:35.570Z,56
2022-11-29T04:36:51.983Z,56.8
2022-11-29T04:38:08.394Z,55.9
2022-11-29T04:39:24.794Z,57.8
2022-11-29T04:40:40.333Z,56.7
2022-11-29T04:41:56.742Z,56.7
2022-11-29T04:43:13.144Z,56.2
2022-11-29T04:44:29.562Z,56.2
2022-11-29T04:45:45.967Z,56.5
2022-11-29T04:47:02.373Z,56.5
2022-11-29T04:48:18.799Z,56.8
2022-11-29T04:50:51.609Z,56.7
2022-11-29T04:53:24.416Z,56
2022-11-29T04:55:57.240Z,55.1
2022-11-29T04:57:13.657Z,56.3
2022-11-29T04:58:30.062Z,56
2022-11-29T04:59:45.627Z,57.5
2022-11-29T05:01:01.143Z,55.9
2022-11-29T05:02:17.565Z,56.3
2022-11-29T05:03:33.962Z,54.9
2022-11-29T05:06:06.786Z,56.7
2022-11-29T05:07:23.197Z,55.4
2022-11-29T05:08:39.619Z,56.3
2022-11-29T05:11:12.435Z,56.7
2022-11-29T05:12:28.835Z,56.8
2022-11-29T05:13:45.245Z,56.8
2022-11-29T05:15:01.662Z,56.3
2022-11-29T05:16:18.075Z,57
2022-11-29T05:18:50.885Z,57.2
2022-11-29T05:20:06.416Z,59.7
2022-11-29T05:21:22.840Z,56.7
2022-11-29T05:22:39.237Z,57
2022-11-29T05:23:55.657Z,57.3
2022-11-29T05:26:28.476Z,56.3
2022-11-29T05:27:44.886Z,57.2
2022-11-29T05:29:01.291Z,59.2
2022-11-29T05:30:17.706Z,56.5
2022-11-29T05:31:34.109Z,57.2
2022-11-29T05:32:50.524Z,57.6
2022-11-29T05:34:06.924Z,58
2022-11-29T05:35:23.341Z,57
2022-11-29T05:36:39.747Z,57.2
2022-11-29T05:37:56.156Z,57.5
2022-11-29T05:39:12.581Z,57.2
2022-11-29T05:40:28.109Z,57
2022-11-29T05:41:44.523Z,56.5
2022-11-29T05:43:00.917Z,59.9
2022-11-29T05:44:17.331Z,57.2
2022-11-29T05:46:50.159Z,58.3
2022-11-29T05:48:06.570Z,57.2
2022-11-29T05:49:22.981Z,57.5
2022-11-29T05:50:39.395Z,56.8
2022-11-29T05:51:55.790Z,56.7
2022-11-29T05:53:12.214Z,56.3
2022-11-29T05:54:28.615Z,58
2022-11-29T05:55:44.160Z,56.3
2022-11-29T05:56:59.708Z,56.5
2022-11-29T05:58:16.117Z,55.9
2022-11-29T05:59:32.524Z,56.3
2022-11-29T06:00:48.917Z,58.8
2022-11-29T06:02:05.340Z,57.6
2022-11-29T06:03:21.750Z,56.7
2022-11-29T06:04:38.165Z,59.1
2022-11-29T06:07:10.978Z,57.3
2022-11-29T06:08:27.382Z,56.7
2022-11-29T06:09:43.792Z,56.8
2022-11-29T06:11:00.217Z,58.8
2022-11-29T06:12:16.628Z,57.8
2022-11-29T06:13:33.023Z,57
2022-11-29T06:14:49.429Z,56.7
2022-11-29T06:16:04.969Z,57
2022-11-29T06:17:21.371Z,57.5
2022-11-29T06:18:37.786Z,56.5
2022-11-29T06:19:54.199Z,56.5
2022-11-29T06:22:27.027Z,57.3
2022-11-29T06:24:59.832Z,57.5
2022-11-29T06:26:16.246Z,57.3
2022-11-29T06:27:32.665Z,58.1
2022-11-29T06:28:49.075Z,56.3
2022-11-29T06:30:05.484Z,57.2
2022-11-29T06:31:21.881Z,56.5
2022-11-29T06:32:37.449Z,57.5
2022-11-29T06:33:53.843Z,57
2022-11-29T06:35:10.246Z,56.3
2022-11-29T06:36:26.678Z,56.3
2022-11-29T06:37:43.073Z,56.5
2022-11-29T06:40:15.890Z,57.8
2022-11-29T06:42:47.831Z,56.8
2022-11-29T06:44:04.242Z,56.7
2022-11-29T06:45:20.661Z,57.8
2022-11-29T06:47:53.473Z,57.6
2022-11-29T06:50:26.300Z,56.7
2022-11-29T06:52:59.122Z,58.1
2022-11-29T06:54:15.528Z,56.7
2022-11-29T06:55:31.948Z,57.2
2022-11-29T06:56:48.344Z,58.1
2022-11-29T06:58:03.882Z,57.6
2022-11-29T06:59:20.291Z,57
2022-11-29T07:00:36.711Z,57.2
2022-11-29T07:01:53.111Z,59.1
2022-11-29T07:03:09.527Z,58.4
2022-11-29T07:04:25.932Z,58.4
2022-11-29T07:05:42.344Z,57.6
2022-11-29T07:06:58.753Z,58.1
2022-11-29T07:08:15.150Z,58.9
2022-11-29T07:09:31.565Z,57.6
2022-11-29T07:10:47.976Z,57.5
2022-11-29T07:12:04.388Z,56.7
2022-11-29T07:13:20.796Z,58.4
2022-11-29T07:14:37.205Z,57.2
2022-11-29T07:15:53.629Z,56.5
2022-11-29T07:17:10.035Z,56.8
2022-11-29T07:18:26.443Z,57.2
2022-11-29T07:19:42.850Z,56.8
2022-11-29T07:20:59.253Z,56.7
2022-11-29T07:23:31.228Z,56.5
2022-11-29T07:24:47.640Z,57.2
2022-11-29T07:26:04.047Z,56.3
2022-11-29T07:28:36.000Z,57.6
2022-11-29T07:29:52.405Z,56.3
2022-11-29T07:31:08.818Z,57.2
2022-11-29T07:32:25.239Z,58.8
2022-11-29T07:33:41.637Z,58.1
2022-11-29T07:34:58.055Z,56.5
2022-11-29T07:36:14.470Z,56
2022-11-29T07:37:30.875Z,56.5
2022-11-29T07:38:47.277Z,58.4
2022-11-29T07:40:03.703Z,56.7
2022-11-29T07:41:20.103Z,57
2022-11-29T07:42:35.639Z,56.7
2022-11-29T07:43:52.047Z,57.2
2022-11-29T07:45:08.461Z,57
2022-11-29T07:46:24.858Z,57.2
2022-11-29T07:47:41.267Z,57
2022-11-29T07:48:57.682Z,56.7
2022-11-29T07:50:14.098Z,57.2
2022-11-29T07:51:30.495Z,58
2022-11-29T07:52:46.061Z,57.3
2022-11-29T07:54:02.475Z,56.7
2022-11-29T07:55:18.879Z,56.8
2022-11-29T07:56:35.294Z,56.8
2022-11-29T07:57:50.811Z,57
2022-11-29T07:59:07.222Z,57
2022-11-29T08:00:23.638Z,55.9
2022-11-29T08:01:40.051Z,56
2022-11-29T08:04:12.857Z,56
2022-11-29T08:05:29.268Z,56.8
2022-11-29T08:06:45.686Z,56
2022-11-29T08:08:02.091Z,55.9
2022-11-29T08:09:18.503Z,54.3
2022-11-29T08:10:34.920Z,56.2
2022-11-29T08:11:51.326Z,55.5
2022-11-29T08:14:24.140Z,55.4
2022-11-29T08:15:40.560Z,56.2
2022-11-29T08:16:56.958Z,56.5
2022-11-29T08:19:28.935Z,55.9
2022-11-29T08:20:45.331Z,56
2022-11-29T08:22:01.744Z,57.2
2022-11-29T08:23:18.147Z,55.1
2022-11-29T08:24:34.554Z,55.2
2022-11-29T08:25:50.977Z,56.5
2022-11-29T08:27:07.369Z,56.2
2022-11-29T08:29:39.352Z,57.2
2022-11-29T08:30:54.889Z,56.7
2022-11-29T08:32:11.307Z,55.4
2022-11-29T08:33:26.833Z,55.4
2022-11-29T08:34:43.258Z,55.9
2022-11-29T08:35:59.654Z,55.2
2022-11-29T08:37:16.059Z,55.2
2022-11-29T08:39:48.895Z,55.9
2022-11-29T08:41:05.288Z,55.1
2022-11-29T08:42:21.701Z,54.4
2022-11-29T08:43:38.128Z,56.5
2022-11-29T08:44:54.521Z,56.3
2022-11-29T08:46:10.929Z,56.3
2022-11-29T08:47:27.337Z,56.7
2022-11-29T08:48:43.746Z,55.5
2022-11-29T08:49:59.289Z,56.8
2022-11-29T08:51:15.695Z,55.5
2022-11-29T08:52:32.102Z,56.2
2022-11-29T08:53:48.509Z,56
2022-11-29T08:55:04.923Z,56
2022-11-29T08:57:37.742Z,55.5
2022-11-29T08:58:53.284Z,55.5
2022-11-29T09:00:09.694Z,55.4
2022-11-29T09:01:26.091Z,56.3
2022-11-29T09:02:42.499Z,55.9
2022-11-29T09:03:58.919Z,54.3
2022-11-29T09:05:15.322Z,55.9
2022-11-29T09:06:31.735Z,55.4
2022-11-29T09:07:48.148Z,55.4
2022-11-29T09:09:03.692Z,56.2
2022-11-29T09:10:19.235Z,55.7
2022-11-29T09:11:35.646Z,55.2
2022-11-29T09:12:52.050Z,55.1
2022-11-29T09:14:08.449Z,56.7
2022-11-29T09:15:24.875Z,56.3
2022-11-29T09:16:41.288Z,55.1
2022-11-29T09:17:57.691Z,55.9
2022-11-29T09:20:30.507Z,55.2
2022-11-29T09:21:46.915Z,55.5
2022-11-29T09:23:03.318Z,55.7
2022-11-29T09:25:36.153Z,57
2022-11-29T09:26:52.559Z,56
2022-11-29T09:28:09.106Z,54.6
2022-11-29T09:30:41.044Z,55.2
2022-11-29T09:33:13.878Z,55.9
2022-11-29T09:34:30.283Z,56
2022-11-29T09:35:46.680Z,56
2022-11-29T09:37:03.107Z,55.2
2022-11-29T09:38:19.500Z,55.4
2022-11-29T09:39:35.916Z,54.4
2022-11-29T09:40:52.320Z,55.2
2022-11-29T09:42:08.742Z,54.3
2022-11-29T09:43:25.151Z,52.8
2022-11-29T09:45:57.962Z,53.4
2022-11-29T09:47:14.372Z,54.7
2022-11-29T09:48:30.785Z,54.4
2022-11-29T09:49:46.319Z,54.6
2022-11-29T09:51:02.733Z,55.5
2022-11-29T09:52:19.141Z,53.1
2022-11-29T09:53:35.541Z,53.4
2022-11-29T09:56:08.365Z,51.5
2022-11-29T09:57:24.771Z,54.4
2022-11-29T09:58:41.188Z,52.8
2022-11-29T10:01:14.000Z,52.5
2022-11-29T10:02:30.415Z,53.1
2022-11-29T10:03:46.831Z,57.8
2022-11-29T10:05:03.231Z,52.8
2022-11-29T10:06:19.654Z,53.8
2022-11-29T10:07:36.066Z,55.9
2022-11-29T10:08:52.466Z,55.4
2022-11-29T10:10:07.994Z,52.8
2022-11-29T10:11:24.412Z,52.3
2022-11-29T10:12:40.805Z,53
2022-11-29T10:13:57.220Z,53
2022-11-29T10:15:13.627Z,51.8
2022-11-29T10:16:30.042Z,52
2022-11-29T10:19:02.859Z,53.4
2022-11-29T10:22:52.093Z,53.1
2022-11-29T10:24:08.507Z,51.2
2022-11-29T10:25:24.904Z,52
2022-11-29T10:26:40.438Z,53.3
2022-11-29T10:27:56.851Z,53
2022-11-29T10:29:13.255Z,54.1
2022-11-29T10:31:46.083Z,52.5
2022-11-29T10:33:02.496Z,52.8
2022-11-29T10:34:18.901Z,52.5
2022-11-29T10:35:35.315Z,53
2022-11-29T10:36:51.723Z,52.3
2022-11-29T10:38:08.123Z,52.8
2022-11-29T10:39:24.549Z,54.1
2022-11-29T10:40:40.944Z,53.1
2022-11-29T10:41:57.357Z,52.5
2022-11-29T10:43:13.761Z,51.8
2022-11-29T10:44:30.179Z,52.3
2022-11-29T10:45:45.714Z,53.1
2022-11-29T10:47:02.116Z,51.7
2022-11-29T10:48:18.530Z,51.8
2022-11-29T10:49:34.936Z,52.2
2022-11-29T10:50:50.495Z,52
2022-11-29T10:52:06.021Z,50.7
2022-11-29T10:53:22.421Z,52.5
2022-11-29T10:54:38.840Z,49.9
2022-11-29T10:55:55.240Z,51.5
2022-11-29T10:57:11.658Z,51.2
2022-11-29T10:58:28.063Z,50.2
2022-11-29T10:59:44.478Z,52.5
2022-11-29T11:02:17.298Z,52
2022-11-29T11:03:33.707Z,51.7
2022-11-29T11:04:50.118Z,51.2
2022-11-29T11:07:22.933Z,50.4
2022-11-29T11:09:55.738Z,50.2
2022-11-29T11:11:11.303Z,50.9
2022-11-29T11:12:26.846Z,50.9
2022-11-29T11:13:43.248Z,52
2022-11-29T11:14:59.647Z,50.4
2022-11-29T11:16:16.061Z,51.5
2022-11-29T11:17:32.474Z,52.8
2022-11-29T11:18:48.892Z,53.9
2022-11-29T11:20:05.300Z,52.8
2022-11-29T11:22:38.110Z,50.5
2022-11-29T11:23:54.529Z,51.2
2022-11-29T11:25:10.930Z,51.2
2022-11-29T11:26:27.340Z,51.2
2022-11-29T11:27:43.753Z,51.7
2022-11-29T11:29:00.157Z,53.4
2022-11-29T11:30:16.579Z,50.9
2022-11-29T11:32:49.392Z,51.5
2022-11-29T11:34:05.814Z,51.4
2022-11-29T11:35:21.339Z,52
2022-11-29T11:39:10.560Z,52.2
2022-11-29T11:40:26.967Z,50.4
2022-11-29T11:41:43.380Z,51.4
2022-11-29T11:42:59.793Z,50.4
2022-11-29T11:44:16.188Z,50.7
2022-11-29T11:45:32.610Z,51.2
2022-11-29T11:48:05.429Z,51.8
2022-11-29T11:49:21.843Z,51.2
2022-11-29T11:50:38.245Z,50.4
2022-11-29T11:51:53.781Z,51.4
2022-11-29T11:53:10.180Z,50.4
2022-11-29T11:54:26.602Z,52
2022-11-29T11:55:42.995Z,52
2022-11-29T11:58:15.822Z,52.3
2022-11-29T11:59:32.233Z,50.1
2022-11-29T12:00:48.630Z,51
2022-11-29T12:02:05.049Z,50.9
2022-11-29T12:03:21.463Z,49.6
2022-11-29T12:04:37.869Z,49.9
2022-11-29T12:05:54.291Z,49.6
2022-11-29T12:07:10.677Z,49.1
2022-11-29T12:08:27.097Z,51.8
2022-11-29T12:09:42.631Z,51.5
2022-11-29T12:10:59.027Z,50.4
2022-11-29T12:12:15.438Z,52.2
2022-11-29T12:13:31.857Z,52.2
2022-11-29T12:16:04.673Z,52.2
2022-11-29T12:17:21.090Z,52
2022-11-29T12:18:37.504Z,52
2022-11-29T12:19:53.908Z,50.4
2022-11-29T12:21:10.314Z,54.3
2022-11-29T12:23:43.141Z,50.9
2022-11-29T12:24:59.552Z,52.8
2022-11-29T12:26:15.964Z,53.6
2022-11-29T12:27:32.379Z,52.5
2022-11-29T12:30:04.312Z,53.4
2022-11-29T12:31:20.714Z,49.7
2022-11-29T12:33:53.535Z,50.7
2022-11-29T12:35:09.949Z,51.8
2022-11-29T12:36:26.363Z,50.9
